sensor_id;sensor_type;location;lat;lon;timestamp;P1;durP1;ratioP1;P2;durP2;ratioP2
15976;SDS011;8091;51.914;12.786;2022-07-30T00:00:02;3.80;;;1.80;;
15976;SDS011;8091;51.914;12.786;2022-07-30T00:02:28;3.88;;;2.20;;
15976;SDS011;8091;51.914;12.786;2022-07-30T00:04:54;3.00;;;1.90;;
15976;SDS011;8091;51.914;12.786;2022-07-30T00:07:20;4.47;;;1.80;;
15976;SDS011;8091;51.914;12.786;2022-07-30T00:09:46;4.50;;;1.77;;
15976;SDS011;8091;51.914;12.786;2022-07-30T00:12:12;2.20;;;1.80;;
15976;SDS011;8091;51.914;12.786;2022-07-30T00:14:39;3.60;;;2.05;;
15976;SDS011;8091;51.914;12.786;2022-07-30T00:17:05;3.80;;;2.00;;
15976;SDS011;8091;51.914;12.786;2022-07-30T00:19:31;4.63;;;2.08;;
15976;SDS011;8091;51.914;12.786;2022-07-30T00:21:57;6.85;;;2.30;;
15976;SDS011;8091;51.914;12.786;2022-07-30T00:24:23;5.25;;;2.40;;
15976;SDS011;8091;51.914;12.786;2022-07-30T00:26:49;6.03;;;1.98;;
15976;SDS011;8091;51.914;12.786;2022-07-30T00:29:15;3.42;;;2.15;;
15976;SDS011;8091;51.914;12.786;2022-07-30T00:31:41;5.13;;;1.92;;
15976;SDS011;8091;51.914;12.786;2022-07-30T00:34:07;5.57;;;2.10;;
15976;SDS011;8091;51.914;12.786;2022-07-30T00:36:33;8.77;;;2.28;;
15976;SDS011;8091;51.914;12.786;2022-07-30T00:38:59;4.63;;;2.50;;
15976;SDS011;8091;51.914;12.786;2022-07-30T00:41:25;4.93;;;2.10;;
15976;SDS011;8091;51.914;12.786;2022-07-30T00:43:51;3.80;;;1.90;;
15976;SDS011;8091;51.914;12.786;2022-07-30T00:46:17;3.10;;;1.83;;
15976;SDS011;8091;51.914;12.786;2022-07-30T00:48:44;3.55;;;2.05;;
15976;SDS011;8091;51.914;12.786;2022-07-30T00:51:10;2.63;;;2.10;;
15976;SDS011;8091;51.914;12.786;2022-07-30T00:53:36;3.15;;;1.88;;
15976;SDS011;8091;51.914;12.786;2022-07-30T00:56:03;4.22;;;2.33;;
15976;SDS011;8091;51.914;12.786;2022-07-30T00:58:29;5.88;;;2.10;;
15976;SDS011;8091;51.914;12.786;2022-07-30T01:00:55;3.47;;;2.30;;
15976;SDS011;8091;51.914;12.786;2022-07-30T01:03:21;4.82;;;2.03;;
15976;SDS011;8091;51.914;12.786;2022-07-30T01:05:47;2.65;;;2.10;;
15976;SDS011;8091;51.914;12.786;2022-07-30T01:08:14;4.95;;;2.38;;
15976;SDS011;8091;51.914;12.786;2022-07-30T01:10:40;6.18;;;2.28;;
15976;SDS011;8091;51.914;12.786;2022-07-30T01:13:06;3.05;;;2.05;;
15976;SDS011;8091;51.914;12.786;2022-07-30T01:15:32;3.90;;;2.17;;
15976;SDS011;8091;51.914;12.786;2022-07-30T01:17:59;2.95;;;1.92;;
15976;SDS011;8091;51.914;12.786;2022-07-30T01:23:13;6.47;;;2.33;;
15976;SDS011;8091;51.914;12.786;2022-07-30T01:28:18;7.38;;;2.05;;
15976;SDS011;8091;51.914;12.786;2022-07-30T01:30:46;5.38;;;2.40;;
15976;SDS011;8091;51.914;12.786;2022-07-30T01:33:16;3.70;;;2.00;;
15976;SDS011;8091;51.914;12.786;2022-07-30T01:35:44;3.63;;;2.20;;
15976;SDS011;8091;51.914;12.786;2022-07-30T01:38:11;5.30;;;2.40;;
15976;SDS011;8091;51.914;12.786;2022-07-30T01:40:40;6.90;;;2.80;;
15976;SDS011;8091;51.914;12.786;2022-07-30T01:43:07;3.63;;;2.38;;
15976;SDS011;8091;51.914;12.786;2022-07-30T01:45:33;3.67;;;2.22;;
15976;SDS011;8091;51.914;12.786;2022-07-30T01:48:01;2.67;;;2.00;;
15976;SDS011;8091;51.914;12.786;2022-07-30T01:50:28;7.60;;;2.50;;
15976;SDS011;8091;51.914;12.786;2022-07-30T01:52:55;2.85;;;2.28;;
15976;SDS011;8091;51.914;12.786;2022-07-30T01:55:23;2.55;;;2.33;;
15976;SDS011;8091;51.914;12.786;2022-07-30T01:57:50;5.00;;;2.83;;
15976;SDS011;8091;51.914;12.786;2022-07-30T02:00:16;4.03;;;2.35;;
15976;SDS011;8091;51.914;12.786;2022-07-30T02:02:43;2.72;;;2.40;;
15976;SDS011;8091;51.914;12.786;2022-07-30T02:05:09;3.55;;;2.40;;
15976;SDS011;8091;51.914;12.786;2022-07-30T02:07:37;6.18;;;2.85;;
15976;SDS011;8091;51.914;12.786;2022-07-30T02:12:35;3.22;;;2.55;;
15976;SDS011;8091;51.914;12.786;2022-07-30T02:17:31;5.47;;;2.70;;
15976;SDS011;8091;51.914;12.786;2022-07-30T02:20:02;2.50;;;2.28;;
15976;SDS011;8091;51.914;12.786;2022-07-30T02:22:29;5.35;;;2.60;;
15976;SDS011;8091;51.914;12.786;2022-07-30T02:24:57;4.70;;;2.70;;
15976;SDS011;8091;51.914;12.786;2022-07-30T02:27:26;6.07;;;2.90;;
15976;SDS011;8091;51.914;12.786;2022-07-30T02:29:53;3.72;;;2.78;;
15976;SDS011;8091;51.914;12.786;2022-07-30T02:32:21;4.07;;;2.70;;
15976;SDS011;8091;51.914;12.786;2022-07-30T02:34:49;5.93;;;2.50;;
15976;SDS011;8091;51.914;12.786;2022-07-30T02:37:16;4.60;;;2.55;;
15976;SDS011;8091;51.914;12.786;2022-07-30T02:39:47;5.32;;;2.75;;
15976;SDS011;8091;51.914;12.786;2022-07-30T02:42:13;5.28;;;3.08;;
15976;SDS011;8091;51.914;12.786;2022-07-30T02:44:40;3.38;;;2.53;;
15976;SDS011;8091;51.914;12.786;2022-07-30T02:47:07;4.55;;;2.97;;
15976;SDS011;8091;51.914;12.786;2022-07-30T02:49:33;3.75;;;2.70;;
15976;SDS011;8091;51.914;12.786;2022-07-30T02:52:00;6.10;;;2.92;;
15976;SDS011;8091;51.914;12.786;2022-07-30T02:54:27;5.35;;;3.00;;
15976;SDS011;8091;51.914;12.786;2022-07-30T02:56:55;2.95;;;2.65;;
15976;SDS011;8091;51.914;12.786;2022-07-30T02:59:21;3.10;;;2.53;;
15976;SDS011;8091;51.914;12.786;2022-07-30T03:01:48;3.72;;;2.55;;
15976;SDS011;8091;51.914;12.786;2022-07-30T03:04:15;3.95;;;2.70;;
15976;SDS011;8091;51.914;12.786;2022-07-30T03:06:43;7.10;;;2.72;;
15976;SDS011;8091;51.914;12.786;2022-07-30T03:09:10;4.45;;;2.80;;
15976;SDS011;8091;51.914;12.786;2022-07-30T03:11:37;4.80;;;3.28;;
15976;SDS011;8091;51.914;12.786;2022-07-30T03:14:03;6.78;;;3.00;;
15976;SDS011;8091;51.914;12.786;2022-07-30T03:16:31;5.15;;;3.25;;
15976;SDS011;8091;51.914;12.786;2022-07-30T03:18:59;7.65;;;3.65;;
15976;SDS011;8091;51.914;12.786;2022-07-30T03:21:26;4.72;;;3.95;;
15976;SDS011;8091;51.914;12.786;2022-07-30T03:23:53;6.75;;;3.70;;
15976;SDS011;8091;51.914;12.786;2022-07-30T03:26:20;4.43;;;3.30;;
15976;SDS011;8091;51.914;12.786;2022-07-30T03:28:47;3.88;;;2.88;;
15976;SDS011;8091;51.914;12.786;2022-07-30T03:31:14;5.10;;;3.20;;
15976;SDS011;8091;51.914;12.786;2022-07-30T03:33:40;4.65;;;2.83;;
15976;SDS011;8091;51.914;12.786;2022-07-30T03:36:07;4.70;;;3.08;;
15976;SDS011;8091;51.914;12.786;2022-07-30T03:38:37;4.82;;;3.03;;
15976;SDS011;8091;51.914;12.786;2022-07-30T03:41:04;3.95;;;3.13;;
15976;SDS011;8091;51.914;12.786;2022-07-30T03:43:31;4.47;;;2.97;;
15976;SDS011;8091;51.914;12.786;2022-07-30T03:45:57;6.28;;;3.63;;
15976;SDS011;8091;51.914;12.786;2022-07-30T03:48:23;4.72;;;3.03;;
15976;SDS011;8091;51.914;12.786;2022-07-30T03:50:50;3.28;;;2.70;;
15976;SDS011;8091;51.914;12.786;2022-07-30T03:53:16;6.32;;;3.38;;
15976;SDS011;8091;51.914;12.786;2022-07-30T03:55:43;4.22;;;3.53;;
15976;SDS011;8091;51.914;12.786;2022-07-30T03:58:09;8.10;;;3.70;;
15976;SDS011;8091;51.914;12.786;2022-07-30T04:00:37;5.88;;;3.35;;
15976;SDS011;8091;51.914;12.786;2022-07-30T04:03:03;5.13;;;3.00;;
15976;SDS011;8091;51.914;12.786;2022-07-30T04:05:29;4.40;;;3.40;;
15976;SDS011;8091;51.914;12.786;2022-07-30T04:07:55;7.88;;;3.53;;
15976;SDS011;8091;51.914;12.786;2022-07-30T04:10:21;5.47;;;3.75;;
15976;SDS011;8091;51.914;12.786;2022-07-30T04:12:47;3.70;;;3.40;;
15976;SDS011;8091;51.914;12.786;2022-07-30T04:15:13;7.15;;;3.20;;
15976;SDS011;8091;51.914;12.786;2022-07-30T04:20:05;3.90;;;3.28;;
15976;SDS011;8091;51.914;12.786;2022-07-30T04:22:33;5.82;;;3.53;;
15976;SDS011;8091;51.914;12.786;2022-07-30T04:25:01;3.90;;;3.08;;
15976;SDS011;8091;51.914;12.786;2022-07-30T04:27:27;4.82;;;3.20;;
15976;SDS011;8091;51.914;12.786;2022-07-30T04:29:54;4.53;;;3.00;;
15976;SDS011;8091;51.914;12.786;2022-07-30T04:32:20;7.28;;;3.22;;
15976;SDS011;8091;51.914;12.786;2022-07-30T04:34:50;3.85;;;3.20;;
15976;SDS011;8091;51.914;12.786;2022-07-30T04:37:17;4.88;;;3.10;;
15976;SDS011;8091;51.914;12.786;2022-07-30T04:39:43;5.28;;;3.55;;
15976;SDS011;8091;51.914;12.786;2022-07-30T04:42:09;4.43;;;3.40;;
15976;SDS011;8091;51.914;12.786;2022-07-30T04:44:36;4.18;;;2.90;;
15976;SDS011;8091;51.914;12.786;2022-07-30T04:47:02;4.72;;;3.20;;
15976;SDS011;8091;51.914;12.786;2022-07-30T04:49:28;4.40;;;3.40;;
15976;SDS011;8091;51.914;12.786;2022-07-30T04:51:54;5.70;;;3.60;;
15976;SDS011;8091;51.914;12.786;2022-07-30T04:54:21;5.07;;;2.85;;
15976;SDS011;8091;51.914;12.786;2022-07-30T04:56:49;3.83;;;2.97;;
15976;SDS011;8091;51.914;12.786;2022-07-30T04:59:16;7.35;;;4.22;;
15976;SDS011;8091;51.914;12.786;2022-07-30T05:01:42;6.20;;;3.90;;
15976;SDS011;8091;51.914;12.786;2022-07-30T05:04:10;8.60;;;3.20;;
15976;SDS011;8091;51.914;12.786;2022-07-30T05:06:37;4.35;;;3.17;;
15976;SDS011;8091;51.914;12.786;2022-07-30T05:09:04;3.17;;;2.90;;
15976;SDS011;8091;51.914;12.786;2022-07-30T05:11:30;3.58;;;3.28;;
15976;SDS011;8091;51.914;12.786;2022-07-30T05:13:56;4.28;;;3.10;;
15976;SDS011;8091;51.914;12.786;2022-07-30T05:16:22;5.68;;;3.58;;
15976;SDS011;8091;51.914;12.786;2022-07-30T05:18:49;8.70;;;4.05;;
15976;SDS011;8091;51.914;12.786;2022-07-30T05:21:15;6.93;;;4.20;;
15976;SDS011;8091;51.914;12.786;2022-07-30T05:23:41;8.27;;;3.70;;
15976;SDS011;8091;51.914;12.786;2022-07-30T05:26:07;5.63;;;3.60;;
15976;SDS011;8091;51.914;12.786;2022-07-30T05:28:33;6.20;;;3.65;;
15976;SDS011;8091;51.914;12.786;2022-07-30T05:30:59;4.63;;;3.72;;
15976;SDS011;8091;51.914;12.786;2022-07-30T05:33:25;8.00;;;3.55;;
15976;SDS011;8091;51.914;12.786;2022-07-30T05:35:51;5.93;;;3.88;;
15976;SDS011;8091;51.914;12.786;2022-07-30T05:38:17;6.22;;;3.20;;
15976;SDS011;8091;51.914;12.786;2022-07-30T05:40:43;7.97;;;3.63;;
15976;SDS011;8091;51.914;12.786;2022-07-30T05:43:10;5.63;;;3.53;;
15976;SDS011;8091;51.914;12.786;2022-07-30T05:45:36;4.10;;;3.30;;
15976;SDS011;8091;51.914;12.786;2022-07-30T05:48:02;5.43;;;3.90;;
15976;SDS011;8091;51.914;12.786;2022-07-30T05:50:28;4.63;;;4.07;;
15976;SDS011;8091;51.914;12.786;2022-07-30T05:52:54;4.35;;;3.50;;
15976;SDS011;8091;51.914;12.786;2022-07-30T05:55:22;3.50;;;3.20;;
15976;SDS011;8091;51.914;12.786;2022-07-30T05:57:48;4.78;;;3.55;;
15976;SDS011;8091;51.914;12.786;2022-07-30T06:00:14;4.03;;;3.50;;
15976;SDS011;8091;51.914;12.786;2022-07-30T06:02:40;5.43;;;3.67;;
15976;SDS011;8091;51.914;12.786;2022-07-30T06:05:06;4.05;;;3.13;;
15976;SDS011;8091;51.914;12.786;2022-07-30T06:07:32;5.40;;;4.85;;
15976;SDS011;8091;51.914;12.786;2022-07-30T06:09:59;5.55;;;3.38;;
15976;SDS011;8091;51.914;12.786;2022-07-30T06:12:28;5.15;;;4.07;;
15976;SDS011;8091;51.914;12.786;2022-07-30T06:14:55;5.38;;;3.40;;
15976;SDS011;8091;51.914;12.786;2022-07-30T06:17:21;3.70;;;3.22;;
15976;SDS011;8091;51.914;12.786;2022-07-30T06:19:47;6.63;;;3.95;;
15976;SDS011;8091;51.914;12.786;2022-07-30T06:22:14;4.85;;;3.40;;
15976;SDS011;8091;51.914;12.786;2022-07-30T06:24:40;5.45;;;3.33;;
15976;SDS011;8091;51.914;12.786;2022-07-30T06:27:06;7.75;;;3.40;;
15976;SDS011;8091;51.914;12.786;2022-07-30T06:29:32;5.88;;;3.92;;
15976;SDS011;8091;51.914;12.786;2022-07-30T06:31:58;5.82;;;3.33;;
15976;SDS011;8091;51.914;12.786;2022-07-30T06:34:24;3.65;;;3.35;;
15976;SDS011;8091;51.914;12.786;2022-07-30T06:36:50;4.03;;;3.05;;
15976;SDS011;8091;51.914;12.786;2022-07-30T06:39:17;3.70;;;2.70;;
15976;SDS011;8091;51.914;12.786;2022-07-30T06:41:43;5.50;;;2.88;;
15976;SDS011;8091;51.914;12.786;2022-07-30T06:44:09;4.88;;;3.10;;
15976;SDS011;8091;51.914;12.786;2022-07-30T06:46:35;5.63;;;2.80;;
15976;SDS011;8091;51.914;12.786;2022-07-30T06:49:01;3.50;;;2.75;;
15976;SDS011;8091;51.914;12.786;2022-07-30T06:51:28;3.08;;;2.50;;
15976;SDS011;8091;51.914;12.786;2022-07-30T06:53:54;3.10;;;2.80;;
15976;SDS011;8091;51.914;12.786;2022-07-30T06:56:19;3.35;;;3.00;;
15976;SDS011;8091;51.914;12.786;2022-07-30T06:58:46;2.83;;;2.47;;
15976;SDS011;8091;51.914;12.786;2022-07-30T07:01:12;3.45;;;2.65;;
15976;SDS011;8091;51.914;12.786;2022-07-30T07:03:38;7.55;;;3.83;;
15976;SDS011;8091;51.914;12.786;2022-07-30T07:06:04;3.47;;;2.40;;
15976;SDS011;8091;51.914;12.786;2022-07-30T07:08:30;4.28;;;2.90;;
15976;SDS011;8091;51.914;12.786;2022-07-30T07:10:56;2.33;;;2.13;;
15976;SDS011;8091;51.914;12.786;2022-07-30T07:13:22;4.53;;;2.42;;
15976;SDS011;8091;51.914;12.786;2022-07-30T07:15:48;2.45;;;2.00;;
15976;SDS011;8091;51.914;12.786;2022-07-30T07:18:14;3.58;;;2.83;;
15976;SDS011;8091;51.914;12.786;2022-07-30T07:20:40;2.85;;;2.15;;
15976;SDS011;8091;51.914;12.786;2022-07-30T07:23:07;2.85;;;2.05;;
15976;SDS011;8091;51.914;12.786;2022-07-30T07:25:33;3.47;;;2.67;;
15976;SDS011;8091;51.914;12.786;2022-07-30T07:27:59;4.53;;;2.40;;
15976;SDS011;8091;51.914;12.786;2022-07-30T07:30:25;5.65;;;2.75;;
15976;SDS011;8091;51.914;12.786;2022-07-30T07:32:51;2.83;;;2.10;;
15976;SDS011;8091;51.914;12.786;2022-07-30T07:35:17;7.25;;;2.67;;
15976;SDS011;8091;51.914;12.786;2022-07-30T07:37:43;3.40;;;2.63;;
15976;SDS011;8091;51.914;12.786;2022-07-30T07:40:09;3.90;;;2.78;;
15976;SDS011;8091;51.914;12.786;2022-07-30T07:42:35;4.15;;;2.38;;
15976;SDS011;8091;51.914;12.786;2022-07-30T07:45:01;2.60;;;2.40;;
15976;SDS011;8091;51.914;12.786;2022-07-30T07:47:27;4.65;;;3.30;;
15976;SDS011;8091;51.914;12.786;2022-07-30T07:49:54;3.00;;;2.60;;
15976;SDS011;8091;51.914;12.786;2022-07-30T07:52:20;9.27;;;2.20;;
15976;SDS011;8091;51.914;12.786;2022-07-30T07:54:46;5.47;;;2.35;;
15976;SDS011;8091;51.914;12.786;2022-07-30T07:57:12;3.45;;;2.78;;
15976;SDS011;8091;51.914;12.786;2022-07-30T07:59:38;4.13;;;2.70;;
15976;SDS011;8091;51.914;12.786;2022-07-30T08:02:04;4.60;;;2.45;;
15976;SDS011;8091;51.914;12.786;2022-07-30T08:04:30;4.55;;;2.40;;
15976;SDS011;8091;51.914;12.786;2022-07-30T08:06:56;3.67;;;2.80;;
15976;SDS011;8091;51.914;12.786;2022-07-30T08:09:22;4.13;;;2.50;;
15976;SDS011;8091;51.914;12.786;2022-07-30T08:11:48;8.32;;;2.97;;
15976;SDS011;8091;51.914;12.786;2022-07-30T08:14:14;4.45;;;2.58;;
15976;SDS011;8091;51.914;12.786;2022-07-30T08:16:41;2.60;;;2.40;;
15976;SDS011;8091;51.914;12.786;2022-07-30T08:19:07;3.25;;;2.83;;
15976;SDS011;8091;51.914;12.786;2022-07-30T08:21:33;5.93;;;2.47;;
15976;SDS011;8091;51.914;12.786;2022-07-30T08:23:59;6.03;;;2.80;;
15976;SDS011;8091;51.914;12.786;2022-07-30T08:26:24;4.07;;;2.50;;
15976;SDS011;8091;51.914;12.786;2022-07-30T08:28:51;4.00;;;3.05;;
15976;SDS011;8091;51.914;12.786;2022-07-30T08:31:17;4.47;;;2.95;;
15976;SDS011;8091;51.914;12.786;2022-07-30T08:33:43;4.13;;;2.95;;
15976;SDS011;8091;51.914;12.786;2022-07-30T08:36:09;3.33;;;2.67;;
15976;SDS011;8091;51.914;12.786;2022-07-30T08:38:35;4.07;;;2.42;;
15976;SDS011;8091;51.914;12.786;2022-07-30T08:41:01;4.93;;;2.40;;
15976;SDS011;8091;51.914;12.786;2022-07-30T08:43:27;5.55;;;2.80;;
15976;SDS011;8091;51.914;12.786;2022-07-30T08:45:54;4.60;;;2.17;;
15976;SDS011;8091;51.914;12.786;2022-07-30T08:48:21;3.47;;;2.30;;
15976;SDS011;8091;51.914;12.786;2022-07-30T08:50:48;4.72;;;1.95;;
15976;SDS011;8091;51.914;12.786;2022-07-30T08:53:14;6.28;;;2.20;;
15976;SDS011;8091;51.914;12.786;2022-07-30T08:55:41;4.50;;;2.20;;
15976;SDS011;8091;51.914;12.786;2022-07-30T08:58:29;5.47;;;3.10;;
15976;SDS011;8091;51.914;12.786;2022-07-30T09:00:54;7.57;;;2.22;;
15976;SDS011;8091;51.914;12.786;2022-07-30T09:03:21;6.63;;;2.30;;
15976;SDS011;8091;51.914;12.786;2022-07-30T09:05:47;5.00;;;2.17;;
15976;SDS011;8091;51.914;12.786;2022-07-30T09:08:13;3.05;;;2.20;;
15976;SDS011;8091;51.914;12.786;2022-07-30T09:10:39;3.05;;;2.17;;
15976;SDS011;8091;51.914;12.786;2022-07-30T09:15:48;7.57;;;2.20;;
15976;SDS011;8091;51.914;12.786;2022-07-30T09:18:14;3.03;;;2.30;;
15976;SDS011;8091;51.914;12.786;2022-07-30T09:20:50;5.95;;;2.20;;
15976;SDS011;8091;51.914;12.786;2022-07-30T09:23:16;7.30;;;2.60;;
15976;SDS011;8091;51.914;12.786;2022-07-30T09:25:43;2.47;;;2.10;;
15976;SDS011;8091;51.914;12.786;2022-07-30T09:28:10;2.92;;;2.00;;
15976;SDS011;8091;51.914;12.786;2022-07-30T09:30:52;3.13;;;1.88;;
15976;SDS011;8091;51.914;12.786;2022-07-30T09:33:31;7.32;;;2.80;;
15976;SDS011;8091;51.914;12.786;2022-07-30T09:35:58;5.78;;;2.45;;
15976;SDS011;8091;51.914;12.786;2022-07-30T09:38:25;8.35;;;2.50;;
15976;SDS011;8091;51.914;12.786;2022-07-30T09:40:54;3.75;;;2.10;;
15976;SDS011;8091;51.914;12.786;2022-07-30T09:43:20;2.25;;;1.92;;
15976;SDS011;8091;51.914;12.786;2022-07-30T09:45:53;3.47;;;2.25;;
15976;SDS011;8091;51.914;12.786;2022-07-30T09:48:22;5.03;;;2.00;;
15976;SDS011;8091;51.914;12.786;2022-07-30T09:50:48;7.22;;;2.08;;
15976;SDS011;8091;51.914;12.786;2022-07-30T09:53:15;8.18;;;2.20;;
15976;SDS011;8091;51.914;12.786;2022-07-30T09:55:41;2.53;;;1.70;;
15976;SDS011;8091;51.914;12.786;2022-07-30T09:58:07;2.10;;;1.90;;
15976;SDS011;8091;51.914;12.786;2022-07-30T10:00:34;4.35;;;2.17;;
15976;SDS011;8091;51.914;12.786;2022-07-30T10:03:01;4.93;;;2.35;;
15976;SDS011;8091;51.914;12.786;2022-07-30T10:05:47;7.28;;;2.55;;
15976;SDS011;8091;51.914;12.786;2022-07-30T10:08:13;11.85;;;2.85;;
15976;SDS011;8091;51.914;12.786;2022-07-30T10:10:39;4.10;;;1.85;;
15976;SDS011;8091;51.914;12.786;2022-07-30T10:13:05;6.20;;;2.08;;
15976;SDS011;8091;51.914;12.786;2022-07-30T10:15:33;5.57;;;2.60;;
15976;SDS011;8091;51.914;12.786;2022-07-30T10:18:00;5.50;;;2.20;;
15976;SDS011;8091;51.914;12.786;2022-07-30T10:20:27;5.43;;;1.90;;
15976;SDS011;8091;51.914;12.786;2022-07-30T10:22:53;2.92;;;1.70;;
15976;SDS011;8091;51.914;12.786;2022-07-30T10:25:20;7.15;;;1.95;;
15976;SDS011;8091;51.914;12.786;2022-07-30T10:27:46;4.20;;;2.00;;
15976;SDS011;8091;51.914;12.786;2022-07-30T10:30:13;2.60;;;1.80;;
15976;SDS011;8091;51.914;12.786;2022-07-30T10:32:39;4.70;;;1.80;;
15976;SDS011;8091;51.914;12.786;2022-07-30T10:35:05;5.90;;;1.80;;
15976;SDS011;8091;51.914;12.786;2022-07-30T10:37:31;5.82;;;1.83;;
15976;SDS011;8091;51.914;12.786;2022-07-30T10:45:14;5.07;;;1.50;;
15976;SDS011;8091;51.914;12.786;2022-07-30T10:47:42;7.85;;;1.95;;
15976;SDS011;8091;51.914;12.786;2022-07-30T10:55:31;3.30;;;2.03;;
15976;SDS011;8091;51.914;12.786;2022-07-30T11:00:25;2.92;;;1.70;;
15976;SDS011;8091;51.914;12.786;2022-07-30T11:05:36;3.15;;;1.70;;
15976;SDS011;8091;51.914;12.786;2022-07-30T11:10:46;7.07;;;1.73;;
15976;SDS011;8091;51.914;12.786;2022-07-30T11:13:12;2.00;;;1.27;;
15976;SDS011;8091;51.914;12.786;2022-07-30T11:15:51;1.65;;;1.45;;
15976;SDS011;8091;51.914;12.786;2022-07-30T11:18:21;2.95;;;1.60;;
15976;SDS011;8091;51.914;12.786;2022-07-30T11:23:37;2.03;;;1.33;;
15976;SDS011;8091;51.914;12.786;2022-07-30T11:26:03;2.30;;;1.63;;
15976;SDS011;8091;51.914;12.786;2022-07-30T11:31:32;17.08;;;2.55;;
15976;SDS011;8091;51.914;12.786;2022-07-30T11:37:06;6.13;;;1.92;;
15976;SDS011;8091;51.914;12.786;2022-07-30T11:42:27;4.72;;;1.60;;
15976;SDS011;8091;51.914;12.786;2022-07-30T11:47:38;2.80;;;1.60;;
15976;SDS011;8091;51.914;12.786;2022-07-30T11:50:04;4.15;;;1.58;;
15976;SDS011;8091;51.914;12.786;2022-07-30T11:52:31;5.93;;;2.33;;
15976;SDS011;8091;51.914;12.786;2022-07-30T11:54:57;4.70;;;2.65;;
15976;SDS011;8091;51.914;12.786;2022-07-30T11:57:39;5.78;;;3.17;;
15976;SDS011;8091;51.914;12.786;2022-07-30T12:00:05;8.85;;;3.25;;
15976;SDS011;8091;51.914;12.786;2022-07-30T12:02:32;7.85;;;3.22;;
15976;SDS011;8091;51.914;12.786;2022-07-30T12:04:58;3.10;;;2.80;;
15976;SDS011;8091;51.914;12.786;2022-07-30T12:07:24;6.57;;;3.30;;
15976;SDS011;8091;51.914;12.786;2022-07-30T12:09:50;7.93;;;3.42;;
15976;SDS011;8091;51.914;12.786;2022-07-30T12:12:21;7.65;;;4.10;;
15976;SDS011;8091;51.914;12.786;2022-07-30T12:14:48;6.07;;;3.78;;
15976;SDS011;8091;51.914;12.786;2022-07-30T12:17:14;4.13;;;3.60;;
15976;SDS011;8091;51.914;12.786;2022-07-30T12:19:46;4.82;;;3.83;;
15976;SDS011;8091;51.914;12.786;2022-07-30T12:22:12;6.10;;;3.53;;
15976;SDS011;8091;51.914;12.786;2022-07-30T12:24:38;5.47;;;3.88;;
15976;SDS011;8091;51.914;12.786;2022-07-30T12:27:05;6.80;;;4.13;;
15976;SDS011;8091;51.914;12.786;2022-07-30T12:29:32;7.70;;;4.20;;
15976;SDS011;8091;51.914;12.786;2022-07-30T12:31:59;6.05;;;4.05;;
15976;SDS011;8091;51.914;12.786;2022-07-30T12:34:25;8.00;;;4.78;;
15976;SDS011;8091;51.914;12.786;2022-07-30T12:36:51;11.10;;;4.60;;
15976;SDS011;8091;51.914;12.786;2022-07-30T12:39:18;7.13;;;4.45;;
15976;SDS011;8091;51.914;12.786;2022-07-30T12:41:46;7.50;;;4.20;;
15976;SDS011;8091;51.914;12.786;2022-07-30T12:46:57;7.70;;;3.95;;
15976;SDS011;8091;51.914;12.786;2022-07-30T12:49:27;5.57;;;3.75;;
15976;SDS011;8091;51.914;12.786;2022-07-30T12:51:53;6.00;;;4.00;;
15976;SDS011;8091;51.914;12.786;2022-07-30T12:54:19;6.07;;;4.57;;
15976;SDS011;8091;51.914;12.786;2022-07-30T12:59:41;6.03;;;3.97;;
15976;SDS011;8091;51.914;12.786;2022-07-30T13:02:07;5.88;;;3.78;;
15976;SDS011;8091;51.914;12.786;2022-07-30T13:04:33;7.90;;;3.83;;
15976;SDS011;8091;51.914;12.786;2022-07-30T13:07:10;5.22;;;3.83;;
15976;SDS011;8091;51.914;12.786;2022-07-30T13:09:37;6.88;;;4.22;;
15976;SDS011;8091;51.914;12.786;2022-07-30T13:12:04;6.85;;;3.70;;
15976;SDS011;8091;51.914;12.786;2022-07-30T13:14:30;5.38;;;3.90;;
15976;SDS011;8091;51.914;12.786;2022-07-30T13:16:56;5.55;;;3.83;;
15976;SDS011;8091;51.914;12.786;2022-07-30T13:19:23;4.88;;;3.85;;
15976;SDS011;8091;51.914;12.786;2022-07-30T13:21:49;6.45;;;3.95;;
15976;SDS011;8091;51.914;12.786;2022-07-30T13:24:15;7.90;;;3.90;;
15976;SDS011;8091;51.914;12.786;2022-07-30T13:26:41;7.40;;;3.67;;
15976;SDS011;8091;51.914;12.786;2022-07-30T13:29:07;8.80;;;3.40;;
15976;SDS011;8091;51.914;12.786;2022-07-30T13:31:34;5.40;;;3.20;;
15976;SDS011;8091;51.914;12.786;2022-07-30T13:34:00;6.95;;;3.35;;
15976;SDS011;8091;51.914;12.786;2022-07-30T13:36:26;5.97;;;3.05;;
15976;SDS011;8091;51.914;12.786;2022-07-30T13:38:52;6.88;;;3.30;;
15976;SDS011;8091;51.914;12.786;2022-07-30T13:41:18;7.32;;;3.55;;
15976;SDS011;8091;51.914;12.786;2022-07-30T13:43:44;4.57;;;3.40;;
15976;SDS011;8091;51.914;12.786;2022-07-30T13:46:10;8.40;;;2.88;;
15976;SDS011;8091;51.914;12.786;2022-07-30T13:48:36;5.30;;;3.25;;
15976;SDS011;8091;51.914;12.786;2022-07-30T13:51:03;6.32;;;3.17;;
15976;SDS011;8091;51.914;12.786;2022-07-30T13:53:29;8.10;;;3.63;;
15976;SDS011;8091;51.914;12.786;2022-07-30T13:55:55;7.07;;;3.17;;
15976;SDS011;8091;51.914;12.786;2022-07-30T13:58:23;3.70;;;3.10;;
15976;SDS011;8091;51.914;12.786;2022-07-30T14:00:49;5.45;;;2.80;;
15976;SDS011;8091;51.914;12.786;2022-07-30T14:03:15;7.30;;;3.20;;
15976;SDS011;8091;51.914;12.786;2022-07-30T14:05:41;5.85;;;3.03;;
15976;SDS011;8091;51.914;12.786;2022-07-30T14:08:07;3.85;;;3.00;;
15976;SDS011;8091;51.914;12.786;2022-07-30T14:10:34;7.15;;;3.10;;
15976;SDS011;8091;51.914;12.786;2022-07-30T14:13:02;5.03;;;2.72;;
15976;SDS011;8091;51.914;12.786;2022-07-30T14:15:28;7.20;;;2.90;;
15976;SDS011;8091;51.914;12.786;2022-07-30T14:17:57;4.85;;;2.67;;
15976;SDS011;8091;51.914;12.786;2022-07-30T14:20:24;4.82;;;2.92;;
15976;SDS011;8091;51.914;12.786;2022-07-30T14:22:50;4.68;;;2.85;;
15976;SDS011;8091;51.914;12.786;2022-07-30T14:25:16;3.97;;;2.80;;
15976;SDS011;8091;51.914;12.786;2022-07-30T14:27:43;3.92;;;2.95;;
15976;SDS011;8091;51.914;12.786;2022-07-30T14:30:09;9.25;;;2.97;;
15976;SDS011;8091;51.914;12.786;2022-07-30T14:32:36;5.60;;;3.72;;
15976;SDS011;8091;51.914;12.786;2022-07-30T14:35:05;6.53;;;2.85;;
15976;SDS011;8091;51.914;12.786;2022-07-30T14:37:35;5.95;;;3.55;;
15976;SDS011;8091;51.914;12.786;2022-07-30T14:40:02;8.15;;;2.97;;
15976;SDS011;8091;51.914;12.786;2022-07-30T14:42:28;10.32;;;3.58;;
15976;SDS011;8091;51.914;12.786;2022-07-30T14:44:54;3.40;;;3.10;;
15976;SDS011;8091;51.914;12.786;2022-07-30T14:47:20;4.25;;;3.63;;
15976;SDS011;8091;51.914;12.786;2022-07-30T14:49:46;5.80;;;3.55;;
15976;SDS011;8091;51.914;12.786;2022-07-30T14:52:13;7.15;;;3.40;;
15976;SDS011;8091;51.914;12.786;2022-07-30T14:54:39;6.03;;;3.22;;
15976;SDS011;8091;51.914;12.786;2022-07-30T14:57:05;5.97;;;3.40;;
15976;SDS011;8091;51.914;12.786;2022-07-30T14:59:32;12.57;;;3.55;;
15976;SDS011;8091;51.914;12.786;2022-07-30T15:01:59;6.10;;;3.35;;
15976;SDS011;8091;51.914;12.786;2022-07-30T15:04:28;6.40;;;3.22;;
15976;SDS011;8091;51.914;12.786;2022-07-30T15:06:55;6.07;;;3.10;;
15976;SDS011;8091;51.914;12.786;2022-07-30T15:09:21;5.13;;;2.88;;
15976;SDS011;8091;51.914;12.786;2022-07-30T15:11:48;5.05;;;3.15;;
15976;SDS011;8091;51.914;12.786;2022-07-30T15:14:14;7.57;;;2.80;;
15976;SDS011;8091;51.914;12.786;2022-07-30T15:16:40;3.95;;;2.72;;
15976;SDS011;8091;51.914;12.786;2022-07-30T15:19:06;4.38;;;2.28;;
15976;SDS011;8091;51.914;12.786;2022-07-30T15:21:33;3.25;;;2.55;;
15976;SDS011;8091;51.914;12.786;2022-07-30T15:23:59;3.15;;;2.63;;
15976;SDS011;8091;51.914;12.786;2022-07-30T15:26:25;5.28;;;2.63;;
15976;SDS011;8091;51.914;12.786;2022-07-30T15:28:51;3.70;;;2.58;;
15976;SDS011;8091;51.914;12.786;2022-07-30T15:31:17;4.22;;;2.47;;
15976;SDS011;8091;51.914;12.786;2022-07-30T15:33:45;5.88;;;2.22;;
15976;SDS011;8091;51.914;12.786;2022-07-30T15:36:13;5.05;;;2.60;;
15976;SDS011;8091;51.914;12.786;2022-07-30T15:38:39;7.00;;;2.97;;